createdAt,value
2023-04-28T00:01:06.944Z,11.99
2023-04-28T00:03:35.145Z,12.06
2023-04-28T00:06:04.394Z,12.26
2023-04-28T00:08:32.486Z,12.12
2023-04-28T00:11:00.933Z,12.11
2023-04-28T00:13:29.053Z,12.21
2023-04-28T00:15:57.324Z,12.14
2023-04-28T00:18:29.242Z,12.17
2023-04-28T00:20:57.650Z,12.04
2023-04-28T00:23:25.794Z,12.07
2023-04-28T00:25:54.370Z,12.04
2023-04-28T00:28:33.663Z,11.93
2023-04-28T00:31:03.014Z,11.84
2023-04-28T00:33:32.799Z,11.84
2023-04-28T00:36:01.990Z,11.80
2023-04-28T00:38:30.809Z,11.86
2023-04-28T00:40:59.041Z,11.96
2023-04-28T00:43:27.107Z,11.95
2023-04-28T00:45:55.256Z,11.79
2023-04-28T00:48:24.406Z,11.90
2023-04-28T00:50:54.433Z,11.86
2023-04-28T00:53:22.984Z,11.97
2023-04-28T00:55:53.878Z,11.78
2023-04-28T00:58:22.084Z,11.80
2023-04-28T01:00:50.320Z,11.73
2023-04-28T01:03:18.478Z,11.86
2023-04-28T01:05:47.086Z,11.85
2023-04-28T01:08:17.282Z,11.80
2023-04-28T01:10:45.592Z,11.58
2023-04-28T01:13:13.859Z,11.65
2023-04-28T01:15:42.378Z,11.66
2023-04-28T01:18:10.859Z,11.53
2023-04-28T01:20:40.787Z,11.41
2023-04-28T01:23:13.895Z,11.35
2023-04-28T01:25:45.008Z,11.36
2023-04-28T01:28:13.543Z,11.33
2023-04-28T01:30:41.662Z,11.38
2023-04-28T01:33:09.790Z,11.36
2023-04-28T01:35:37.929Z,11.32
2023-04-28T01:38:06.234Z,11.39
2023-04-28T01:40:34.347Z,11.35
2023-04-28T01:43:03.892Z,11.30
2023-04-28T01:45:31.895Z,11.38
2023-04-28T01:48:00.024Z,11.45
2023-04-28T01:50:28.075Z,11.26
2023-04-28T01:52:56.180Z,11.28
2023-04-28T01:55:24.369Z,11.33
2023-04-28T01:57:52.724Z,11.36
2023-04-28T02:00:22.895Z,11.32
2023-04-28T02:02:51.597Z,11.34
2023-04-28T02:05:20.192Z,11.36
2023-04-28T02:07:48.703Z,11.27
2023-04-28T02:10:17.004Z,11.33
2023-04-28T02:12:44.969Z,11.38
2023-04-28T02:15:12.978Z,11.40
2023-04-28T02:17:42.801Z,11.40
2023-04-28T02:20:14.475Z,11.39
2023-04-28T02:22:42.711Z,11.32
2023-04-28T02:25:11.093Z,11.27
2023-04-28T02:27:39.529Z,11.17
2023-04-28T02:30:08.793Z,11.12
2023-04-28T02:32:37.186Z,11.11
2023-04-28T02:35:08.058Z,11.10
2023-04-28T02:37:36.450Z,10.93
2023-04-28T02:40:04.736Z,10.96
2023-04-28T02:42:33.000Z,10.87
2023-04-28T02:45:01.110Z,10.93
2023-04-28T02:47:29.222Z,10.90
2023-04-28T02:49:57.624Z,10.83
2023-04-28T02:52:27.106Z,10.78
2023-04-28T02:54:57.717Z,10.73
2023-04-28T02:57:26.354Z,10.76
2023-04-28T02:59:54.384Z,10.81
2023-04-28T03:02:23.311Z,10.70
2023-04-28T03:04:51.724Z,10.78
2023-04-28T03:07:20.010Z,10.81
2023-04-28T03:09:49.939Z,10.82
2023-04-28T03:12:17.958Z,10.88
2023-04-28T03:14:46.615Z,10.74
2023-04-28T03:17:15.510Z,10.81
2023-04-28T03:19:43.547Z,10.83
2023-04-28T03:22:12.026Z,10.88
2023-04-28T03:24:40.168Z,10.85
2023-04-28T03:27:09.649Z,10.78
2023-04-28T03:29:38.729Z,10.74
2023-04-28T03:32:07.951Z,10.62
2023-04-28T03:34:36.220Z,10.65
2023-04-28T03:37:04.416Z,10.74
2023-04-28T03:39:32.690Z,10.67
2023-04-28T03:42:01.239Z,10.55
2023-04-28T03:44:30.825Z,10.44
2023-04-28T03:46:58.953Z,10.12
2023-04-28T03:49:27.706Z,10.14
2023-04-28T03:51:55.681Z,10.14
2023-04-28T03:54:23.904Z,9.94
2023-04-28T03:56:51.935Z,9.83
2023-04-28T03:59:19.976Z,9.94
2023-04-28T04:01:49.684Z,9.97
2023-04-28T04:04:18.451Z,9.93
2023-04-28T04:06:46.973Z,9.54
2023-04-28T04:09:15.494Z,9.43
2023-04-28T04:11:43.698Z,9.53
2023-04-28T04:14:12.085Z,9.38
2023-04-28T04:16:40.523Z,9.35
2023-04-28T04:19:09.896Z,9.45
2023-04-28T04:21:37.940Z,9.53
2023-04-28T04:24:06.421Z,9.67
2023-04-28T04:26:34.453Z,9.80
2023-04-28T04:29:02.550Z,9.86
2023-04-28T04:31:32.040Z,9.96
2023-04-28T04:34:00.146Z,10.00
2023-04-28T04:36:29.806Z,9.99
2023-04-28T04:38:58.110Z,9.98
2023-04-28T04:41:27.322Z,10.06
2023-04-28T04:43:55.673Z,10.21
2023-04-28T04:46:24.268Z,10.32
2023-04-28T04:48:52.416Z,10.40
2023-04-28T04:51:20.787Z,10.45
2023-04-28T04:53:50.332Z,10.50
2023-04-28T04:56:18.656Z,10.51
2023-04-28T04:58:46.879Z,10.35
2023-04-28T05:01:15.617Z,10.41
2023-04-28T05:03:44.905Z,10.40
2023-04-28T05:06:13.548Z,10.45
2023-04-28T05:08:42.031Z,10.65
2023-04-28T05:11:11.934Z,10.29
2023-04-28T05:13:40.913Z,10.25
2023-04-28T05:16:09.432Z,10.50
2023-04-28T05:18:37.637Z,10.45
2023-04-28T05:21:06.437Z,10.44
2023-04-28T05:23:34.548Z,10.26
2023-04-28T05:26:04.289Z,9.95
2023-04-28T05:28:35.581Z,10.13
2023-04-28T05:31:03.850Z,10.12
2023-04-28T05:33:32.099Z,10.16
2023-04-28T05:36:00.966Z,10.12
2023-04-28T05:38:29.329Z,10.17
2023-04-28T05:40:57.925Z,10.15
2023-04-28T05:43:25.943Z,10.03
2023-04-28T05:45:55.752Z,10.16
2023-04-28T05:48:24.120Z,10.23
2023-04-28T05:50:53.333Z,10.28
2023-04-28T05:53:21.718Z,10.22
2023-04-28T05:55:49.838Z,10.26
2023-04-28T05:58:18.024Z,10.41
2023-04-28T06:00:46.092Z,10.47
2023-04-28T06:03:19.188Z,10.40
2023-04-28T06:05:47.771Z,10.46
2023-04-28T06:08:16.323Z,10.45
2023-04-28T06:10:44.673Z,10.36
2023-04-28T06:13:14.625Z,10.42
2023-04-28T06:15:43.169Z,10.49
2023-04-28T06:18:11.589Z,10.55
2023-04-28T06:20:41.153Z,10.51
2023-04-28T06:23:09.526Z,10.53
2023-04-28T06:25:38.131Z,10.65
2023-04-28T06:28:07.705Z,10.68
2023-04-28T06:30:36.969Z,10.70
2023-04-28T06:33:05.561Z,10.54
2023-04-28T06:35:35.934Z,10.56
2023-04-28T06:38:06.149Z,10.61
2023-04-28T06:40:34.396Z,10.66
2023-04-28T06:43:03.072Z,10.54
2023-04-28T06:45:31.279Z,10.51
2023-04-28T06:47:59.452Z,10.44
2023-04-28T06:50:27.509Z,10.40
2023-04-28T06:52:55.517Z,10.36
2023-04-28T06:55:25.059Z,10.38
2023-04-28T06:57:53.378Z,10.24
2023-04-28T07:00:21.690Z,10.38
2023-04-28T07:02:49.938Z,10.21
2023-04-28T07:05:18.400Z,10.38
2023-04-28T07:07:48.880Z,10.25
2023-04-28T07:10:17.096Z,10.36
2023-04-28T07:12:46.841Z,10.38
2023-04-28T07:15:14.974Z,10.29
2023-04-28T07:17:43.264Z,10.18
2023-04-28T07:20:11.801Z,10.10
2023-04-28T07:22:40.140Z,10.18
2023-04-28T07:25:09.992Z,10.23
2023-04-28T07:27:38.095Z,10.13
2023-04-28T07:30:25.861Z,10.20
2023-04-28T07:32:55.791Z,10.22
2023-04-28T07:35:24.450Z,10.30
2023-04-28T07:37:53.115Z,10.32
2023-04-28T07:40:21.989Z,10.36
2023-04-28T07:42:49.986Z,10.40
2023-04-28T07:45:19.551Z,10.39
2023-04-28T07:47:47.965Z,10.29
2023-04-28T07:50:16.356Z,10.41
2023-04-28T07:52:44.786Z,10.40
2023-04-28T07:55:13.124Z,10.39
2023-04-28T07:57:42.502Z,10.35
2023-04-28T08:00:12.239Z,10.31
2023-04-28T08:02:42.167Z,10.48
2023-04-28T08:05:11.477Z,10.50
2023-04-28T08:07:40.134Z,10.54
2023-04-28T08:10:10.368Z,10.54
2023-04-28T08:12:38.794Z,10.70
2023-04-28T08:15:07.884Z,10.81
2023-04-28T08:17:36.081Z,10.79
2023-04-28T08:20:12.765Z,10.87
2023-04-28T08:22:40.864Z,10.91
2023-04-28T08:25:10.939Z,10.91
2023-04-28T08:27:40.150Z,10.85
2023-04-28T08:30:11.277Z,11.00
2023-04-28T08:32:39.719Z,11.06
2023-04-28T08:35:11.022Z,11.25
2023-04-28T08:37:39.466Z,11.01
2023-04-28T08:40:11.013Z,11.27
2023-04-28T08:42:39.893Z,11.42
2023-04-28T08:45:09.662Z,11.35
2023-04-28T08:47:39.764Z,11.48
2023-04-28T08:50:12.534Z,11.44
2023-04-28T08:52:41.792Z,11.50
2023-04-28T08:55:13.157Z,11.44
2023-04-28T08:57:45.505Z,11.51
2023-04-28T09:00:14.374Z,11.29
2023-04-28T09:02:43.218Z,11.31
2023-04-28T09:05:14.576Z,11.14
2023-04-28T09:07:42.976Z,11.22
2023-04-28T09:10:19.156Z,11.23
2023-04-28T09:12:48.181Z,11.28
2023-04-28T09:15:34.673Z,11.46
2023-04-28T09:18:04.147Z,11.29
2023-04-28T09:20:35.376Z,11.50
2023-04-28T09:23:17.754Z,11.31
2023-04-28T09:26:02.312Z,11.61
2023-04-28T09:28:30.716Z,11.64
2023-04-28T09:30:59.225Z,11.65
2023-04-28T09:33:27.970Z,11.52
2023-04-28T09:35:57.812Z,11.63
2023-04-28T09:38:26.591Z,11.41
2023-04-28T09:40:58.654Z,11.50
2023-04-28T09:43:28.481Z,11.40
2023-04-28T09:45:57.407Z,11.40
2023-04-28T09:48:31.016Z,11.47
2023-04-28T09:51:01.194Z,11.42
2023-04-28T09:53:30.584Z,11.38
2023-04-28T09:56:00.979Z,11.44
2023-04-28T09:58:30.294Z,11.50
2023-04-28T10:00:59.717Z,11.54
2023-04-28T10:03:30.244Z,11.45
2023-04-28T10:06:00.621Z,11.44
2023-04-28T10:08:29.794Z,11.60
2023-04-28T10:10:58.711Z,11.48
2023-04-28T10:13:27.082Z,11.56
2023-04-28T10:15:58.208Z,11.25
2023-04-28T10:18:27.637Z,11.52
2023-04-28T10:21:03.289Z,11.30
2023-04-28T10:23:53.085Z,11.47
2023-04-28T10:26:22.131Z,11.39
2023-04-28T10:28:51.458Z,11.61
2023-04-28T10:31:22.915Z,11.76
2023-04-28T10:33:51.465Z,11.79
2023-04-28T10:36:52.978Z,11.80
2023-04-28T10:39:23.622Z,11.94
2023-04-28T10:41:51.851Z,11.87
2023-04-28T10:44:45.196Z,11.95
2023-04-28T10:47:15.087Z,12.06
2023-04-28T10:50:11.640Z,12.26
2023-04-28T10:52:54.084Z,12.06
2023-04-28T10:55:33.114Z,12.24
2023-04-28T10:58:34.452Z,12.36
2023-04-28T11:01:28.563Z,12.63
2023-04-28T11:04:03.422Z,12.73
2023-04-28T11:06:34.501Z,12.57
2023-04-28T11:09:05.634Z,12.72
2023-04-28T11:11:35.204Z,12.78
2023-04-28T11:14:35.205Z,12.87
2023-04-28T11:17:05.506Z,12.88
2023-04-28T11:19:36.040Z,12.57
2023-04-28T11:22:10.081Z,12.76
2023-04-28T11:24:39.759Z,12.54
2023-04-28T11:27:08.629Z,12.61
2023-04-28T11:29:38.536Z,12.80
2023-04-28T11:32:08.182Z,12.75
2023-04-28T11:34:37.121Z,13.02
2023-04-28T11:37:07.290Z,13.24
2023-04-28T11:39:36.362Z,13.34
2023-04-28T11:42:12.580Z,13.50
2023-04-28T11:44:40.812Z,13.64
2023-04-28T11:47:09.367Z,13.64
2023-04-28T11:49:45.332Z,13.81
2023-04-28T11:52:14.208Z,13.87
2023-04-28T11:54:43.781Z,13.42
2023-04-28T11:57:20.653Z,13.48
2023-04-28T11:59:49.854Z,13.71
2023-04-28T12:02:28.232Z,13.90
2023-04-28T12:04:56.627Z,14.00
2023-04-28T12:07:24.744Z,14.24
2023-04-28T12:10:16.063Z,14.13
2023-04-28T12:12:52.525Z,14.07
2023-04-28T12:15:22.935Z,14.14
2023-04-28T12:17:52.009Z,14.12
2023-04-28T12:20:36.800Z,14.30
2023-04-28T12:23:05.543Z,14.19
2023-04-28T12:25:35.527Z,14.38
2023-04-28T12:28:07.853Z,14.47
2023-04-28T12:30:42.751Z,14.68
2023-04-28T12:33:24.175Z,14.45
2023-04-28T12:35:53.877Z,14.45
2023-04-28T12:38:21.955Z,14.51
2023-04-28T12:40:50.376Z,14.62
2023-04-28T12:43:21.351Z,14.62
2023-04-28T12:45:50.154Z,14.74
2023-04-28T12:48:18.653Z,14.69
2023-04-28T12:50:47.507Z,14.77
2023-04-28T12:53:15.744Z,14.93
2023-04-28T12:55:44.145Z,14.80
2023-04-28T12:58:12.583Z,15.11
2023-04-28T13:00:42.149Z,14.99
2023-04-28T13:03:10.265Z,14.80
2023-04-28T13:05:38.771Z,15.13
2023-04-28T13:08:06.993Z,15.62
2023-04-28T13:10:35.303Z,15.72
2023-04-28T13:13:03.604Z,15.83
2023-04-28T13:15:32.886Z,16.01
2023-04-28T13:18:02.541Z,16.09
2023-04-28T13:20:30.859Z,16.28
2023-04-28T13:22:59.000Z,16.03
2023-04-28T13:25:27.059Z,16.24
2023-04-28T13:27:55.237Z,15.91
2023-04-28T13:30:23.439Z,15.91
2023-04-28T13:32:52.186Z,15.44
2023-04-28T13:35:22.416Z,15.42
2023-04-28T13:37:50.519Z,15.33
2023-04-28T13:40:19.272Z,15.48
2023-04-28T13:42:47.687Z,15.67
2023-04-28T13:45:17.744Z,15.78
2023-04-28T13:47:46.196Z,16.38
2023-04-28T13:50:14.154Z,16.39
2023-04-28T13:52:43.976Z,16.94
2023-04-28T13:55:12.390Z,16.89
2023-04-28T13:57:42.082Z,16.77
2023-04-28T14:00:11.585Z,16.73
2023-04-28T14:02:40.417Z,16.93
2023-04-28T14:05:09.519Z,17.17
2023-04-28T14:07:39.548Z,17.54
2023-04-28T14:10:11.199Z,17.73
2023-04-28T14:12:40.019Z,17.83
2023-04-28T14:15:09.060Z,18.01
2023-04-28T14:17:39.729Z,18.30
2023-04-28T14:20:11.734Z,18.16
2023-04-28T14:22:40.146Z,17.89
2023-04-28T14:25:11.610Z,17.83
2023-04-28T14:27:40.074Z,17.61
2023-04-28T14:30:09.842Z,17.31
2023-04-28T14:32:40.397Z,17.21
2023-04-28T14:35:09.536Z,16.81
2023-04-28T14:37:38.100Z,16.67
2023-04-28T14:40:08.002Z,16.93
2023-04-28T14:42:38.428Z,16.85
2023-04-28T14:45:09.193Z,16.85
2023-04-28T14:47:38.861Z,16.63
2023-04-28T14:50:08.256Z,16.87
2023-04-28T14:52:37.244Z,17.44
2023-04-28T14:55:06.592Z,18.23
2023-04-28T14:57:35.789Z,18.48
2023-04-28T15:00:07.389Z,18.81
2023-04-28T15:02:35.942Z,18.91
2023-04-28T15:05:04.854Z,18.83
2023-04-28T15:07:34.649Z,18.94
2023-04-28T15:10:03.039Z,19.00
2023-04-28T15:12:32.152Z,18.81
2023-04-28T15:15:00.669Z,18.83
2023-04-28T15:17:30.398Z,18.85
2023-04-28T15:19:58.765Z,19.09
2023-04-28T15:22:27.126Z,19.29
2023-04-28T15:24:55.967Z,19.17
2023-04-28T15:27:24.165Z,18.98
2023-04-28T15:29:52.454Z,18.91
2023-04-28T15:32:20.819Z,18.72
2023-04-28T15:34:50.634Z,18.50
2023-04-28T15:37:43.117Z,18.34
2023-04-28T15:40:13.151Z,18.17
2023-04-28T15:42:42.355Z,18.03
2023-04-28T15:45:12.197Z,18.17
2023-04-28T15:47:40.770Z,18.56
2023-04-28T15:50:12.516Z,19.09
2023-04-28T15:52:46.015Z,18.83
2023-04-28T15:55:15.299Z,18.38
2023-04-28T15:57:44.770Z,18.52
2023-04-28T16:00:14.965Z,18.37
2023-04-28T16:02:44.033Z,18.36
2023-04-28T16:05:14.297Z,18.26
2023-04-28T16:07:43.125Z,18.12
2023-04-28T16:10:12.595Z,17.92
2023-04-28T16:12:42.018Z,17.87
2023-04-28T16:15:13.007Z,17.65
2023-04-28T16:17:42.616Z,17.59
2023-04-28T16:20:12.441Z,17.27
2023-04-28T16:22:42.878Z,17.05
2023-04-28T16:25:12.339Z,17.02
2023-04-28T16:27:41.857Z,16.99
2023-04-28T16:30:10.945Z,16.79
2023-04-28T16:32:41.092Z,16.94
2023-04-28T16:35:15.168Z,16.88
2023-04-28T16:37:45.512Z,16.90
2023-04-28T16:40:16.041Z,16.93
2023-04-28T16:42:45.642Z,16.84
2023-04-28T16:45:14.354Z,16.83
2023-04-28T16:47:44.089Z,16.90
2023-04-28T16:50:15.973Z,16.67
2023-04-28T16:52:46.267Z,16.76
2023-04-28T16:55:14.839Z,16.67
2023-04-28T16:57:43.133Z,16.73
2023-04-28T17:00:12.550Z,16.67
2023-04-28T17:02:40.829Z,16.62
2023-04-28T17:05:10.085Z,16.53
2023-04-28T17:07:38.074Z,16.54
2023-04-28T17:10:09.136Z,16.49
2023-04-28T17:12:37.417Z,16.56
2023-04-28T17:15:06.969Z,16.43
2023-04-28T17:17:35.299Z,16.61
2023-04-28T17:20:03.597Z,16.54
2023-04-28T17:22:33.287Z,16.56
2023-04-28T17:25:01.637Z,16.79
2023-04-28T17:27:31.224Z,16.92
2023-04-28T17:30:00.498Z,16.96
2023-04-28T17:32:28.780Z,17.04
2023-04-28T17:34:56.841Z,16.94
2023-04-28T17:37:24.874Z,16.73
2023-04-28T17:39:53.399Z,16.83
2023-04-28T17:42:22.015Z,17.00
2023-04-28T17:44:52.164Z,16.93
2023-04-28T17:47:20.517Z,17.21
2023-04-28T17:49:48.838Z,17.24
2023-04-28T17:52:17.102Z,17.22
2023-04-28T17:54:45.222Z,17.20
2023-04-28T17:57:14.596Z,17.19
2023-04-28T17:59:44.806Z,17.25
2023-04-28T18:02:14.798Z,17.06
2023-04-28T18:04:43.470Z,17.01
2023-04-28T18:07:11.942Z,16.88
2023-04-28T18:09:41.988Z,16.75
2023-04-28T18:12:10.554Z,16.64
2023-04-28T18:14:41.471Z,16.62
2023-04-28T18:17:09.845Z,16.69
2023-04-28T18:19:39.858Z,16.70
2023-04-28T18:22:10.923Z,16.79
2023-04-28T18:24:39.896Z,16.78
2023-04-28T18:27:08.147Z,16.71
2023-04-28T18:29:36.820Z,16.68
2023-04-28T18:32:04.962Z,16.70
2023-04-28T18:34:33.192Z,16.59
2023-04-28T18:37:03.161Z,16.52
2023-04-28T18:39:32.041Z,16.43
2023-04-28T18:42:00.491Z,16.29
2023-04-28T18:44:29.209Z,16.28
2023-04-28T18:46:57.682Z,16.10
2023-04-28T18:49:27.165Z,16.08
2023-04-28T18:51:56.083Z,15.74
2023-04-28T18:54:27.481Z,15.93
2023-04-28T18:56:57.621Z,15.81
2023-04-28T18:59:27.332Z,15.80
2023-04-28T19:01:55.679Z,15.47
2023-04-28T19:04:24.406Z,15.08
2023-04-28T19:06:52.488Z,14.97
2023-04-28T19:09:21.093Z,14.69
2023-04-28T19:11:50.690Z,14.20
2023-04-28T19:14:19.799Z,14.17
2023-04-28T19:16:47.945Z,14.12
2023-04-28T19:19:16.412Z,13.96
2023-04-28T19:21:45.521Z,14.05
2023-04-28T19:24:14.143Z,14.00
2023-04-28T19:26:42.366Z,14.16
2023-04-28T19:29:17.327Z,14.34
2023-04-28T19:31:46.060Z,14.33
2023-04-28T19:34:14.418Z,14.25
2023-04-28T19:36:42.805Z,14.32
2023-04-28T19:39:10.875Z,14.46
2023-04-28T19:41:38.974Z,14.50
2023-04-28T19:44:07.329Z,14.53
2023-04-28T19:46:37.298Z,14.58
2023-04-28T19:49:05.482Z,14.52
2023-04-28T19:51:33.483Z,14.52
2023-04-28T19:54:03.147Z,14.54
2023-04-28T19:56:32.974Z,14.59
2023-04-28T19:59:01.807Z,14.58
2023-04-28T20:01:30.301Z,14.54
2023-04-28T20:04:00.681Z,14.58
2023-04-28T20:06:32.035Z,14.66
2023-04-28T20:09:00.496Z,14.48
2023-04-28T20:11:28.847Z,14.54
2023-04-28T20:13:57.473Z,14.53
2023-04-28T20:16:26.688Z,14.35
2023-04-28T20:18:55.135Z,14.32
2023-04-28T20:21:25.124Z,14.36
2023-04-28T20:23:53.490Z,14.30
2023-04-28T20:26:23.035Z,14.23
2023-04-28T20:28:51.886Z,14.22
2023-04-28T20:31:20.116Z,14.09
2023-04-28T20:33:48.323Z,14.04
2023-04-28T20:36:16.475Z,14.02
2023-04-28T20:38:46.409Z,13.96
2023-04-28T20:41:14.562Z,13.98
2023-04-28T20:43:42.901Z,13.51
2023-04-28T20:46:13.842Z,13.39
2023-04-28T20:48:43.255Z,13.32
2023-04-28T20:51:11.695Z,13.10
2023-04-28T20:53:40.010Z,13.09
2023-04-28T20:56:09.872Z,13.12
2023-04-28T20:58:38.058Z,13.19
2023-04-28T21:01:06.255Z,13.24
2023-04-28T21:03:35.877Z,13.25
2023-04-28T21:06:04.225Z,13.22
2023-04-28T21:08:32.537Z,13.14
2023-04-28T21:11:00.929Z,13.27
2023-04-28T21:13:30.673Z,13.30
2023-04-28T21:15:59.347Z,13.06
2023-04-28T21:18:27.954Z,13.01
2023-04-28T21:20:56.721Z,13.04
2023-04-28T21:23:25.557Z,12.97
2023-04-28T21:25:53.692Z,13.11
2023-04-28T21:28:22.088Z,13.20
2023-04-28T21:30:54.752Z,13.13
2023-04-28T21:33:23.790Z,13.16
2023-04-28T21:35:55.042Z,13.10
2023-04-28T21:38:23.293Z,13.09
2023-04-28T21:40:52.865Z,13.18
2023-04-28T21:43:22.500Z,13.16
2023-04-28T21:45:52.456Z,13.18
2023-04-28T21:48:22.613Z,13.15
2023-04-28T21:50:51.094Z,13.21
2023-04-28T21:53:19.270Z,13.13
2023-04-28T21:55:47.574Z,13.30
2023-04-28T21:58:15.979Z,13.40
2023-04-28T22:00:46.677Z,13.46
2023-04-28T22:03:16.021Z,13.40
2023-04-28T22:05:46.463Z,13.45
2023-04-28T22:08:15.823Z,13.28
2023-04-28T22:10:45.803Z,13.25
2023-04-28T22:13:14.437Z,12.94
2023-04-28T22:15:44.287Z,13.04
2023-04-28T22:18:12.960Z,13.03
2023-04-28T22:20:41.569Z,13.09
2023-04-28T22:23:11.164Z,12.96
2023-04-28T22:25:39.767Z,13.12
2023-04-28T22:28:08.196Z,13.18
2023-04-28T22:30:36.434Z,13.31
2023-04-28T22:33:05.245Z,13.36
2023-04-28T22:35:33.371Z,13.37
2023-04-28T22:38:01.926Z,13.36
2023-04-28T22:40:33.579Z,13.42
2023-04-28T22:43:01.934Z,13.34
2023-04-28T22:45:30.118Z,13.34
2023-04-28T22:47:58.461Z,13.25
2023-04-28T22:50:28.880Z,13.26
2023-04-28T22:52:57.272Z,13.37
2023-04-28T22:55:26.933Z,13.17
2023-04-28T22:57:56.529Z,13.20
2023-04-28T23:00:24.752Z,13.22
2023-04-28T23:02:53.475Z,12.61
2023-04-28T23:05:21.678Z,12.70
2023-04-28T23:07:49.747Z,12.78
2023-04-28T23:10:19.187Z,12.73
2023-04-28T23:12:47.287Z,12.69
2023-04-28T23:15:17.303Z,12.51
2023-04-28T23:17:45.568Z,12.36
2023-04-28T23:20:14.373Z,12.41
2023-04-28T23:22:43.003Z,12.44
2023-04-28T23:25:11.713Z,12.44
2023-04-28T23:27:41.445Z,12.45
2023-04-28T23:30:12.156Z,12.48
2023-04-28T23:32:42.574Z,12.43
2023-04-28T23:35:11.327Z,12.07
2023-04-28T23:37:39.381Z,12.35
2023-04-28T23:40:10.029Z,12.44
2023-04-28T23:42:41.617Z,12.43
2023-04-28T23:45:11.362Z,12.37
2023-04-28T23:47:40.592Z,12.47
2023-04-28T23:50:11.983Z,12.51
2023-04-28T23:52:40.560Z,12.61
2023-04-28T23:55:10.614Z,12.72
2023-04-28T23:57:39.163Z,12.70
